Time;durP1;ratioP1;P1;durP2;ratioP2;P2;SDS_P1;SDS_P2;PMS_P1;PMS_P2;Temp;Humidity;BMP_temperature;BMP_pressure;BME280_temperature;BME280_humidity;BME280_pressure;Samples;Min_cycle;Max_cycle;Signal;HPM_P1;HPM_P2
2021/04/28 00:02:14;;;;;;;25.52;22.92;;;;;;;;;;3580991;40;20418;-72
2021/04/28 00:04:41;;;;;;;26.40;23.60;;;;;;;;;;3573952;40;20410;-71
2021/04/28 00:07:07;;;;;;;25.30;22.70;;;;;;;;;;3568252;40;20635;-72
2021/04/28 00:09:33;;;;;;;30.13;26.17;;;;;;;;;;3581127;40;20404;-72
2021/04/28 00:12:00;;;;;;;29.23;26.10;;;;;;;;;;3576672;40;20393;-72
2021/04/28 00:14:26;;;;;;;30.08;26.88;;;;;;;;;;3578564;40;20380;-72
2021/04/28 00:16:53;;;;;;;27.50;24.60;;;;;;;;;;3577051;40;20400;-71
2021/04/28 00:19:20;;;;;;;27.83;24.98;;;;;;;;;;3586128;40;20386;-72
2021/04/28 00:21:46;;;;;;;32.15;27.08;;;;;;;;;;3581280;40;20380;-71
2021/04/28 00:24:12;;;;;;;29.40;25.27;;;;;;;;;;3576626;40;20380;-72
2021/04/28 00:26:39;;;;;;;31.15;27.67;;;;;;;;;;3575069;40;20526;-72
2021/04/28 00:29:05;;;;;;;29.58;26.38;;;;;;;;;;3575112;40;20438;-72
2021/04/28 00:31:32;;;;;;;30.15;26.17;;;;;;;;;;3580920;40;20361;-71
2021/04/28 00:33:59;;;;;;;29.67;26.07;;;;;;;;;;3577593;40;20469;-72
2021/04/28 00:36:25;;;;;;;29.08;25.92;;;;;;;;;;3573959;40;20445;-72
2021/04/28 00:38:52;;;;;;;30.60;26.80;;;;;;;;;;3580926;40;20547;-72
2021/04/28 00:41:18;;;;;;;32.55;28.38;;;;;;;;;;3575149;40;20833;-72
2021/04/28 00:43:46;;;;;;;30.75;26.92;;;;;;;;;;3575230;40;20389;-72
2021/04/28 00:46:12;;;;;;;28.45;25.38;;;;;;;;;;3581995;40;20376;-72
2021/04/28 00:48:38;;;;;;;28.98;25.23;;;;;;;;;;3579773;40;20386;-72
2021/04/28 00:51:06;;;;;;;33.25;29.05;;;;;;;;;;3577312;40;20414;-71
2021/04/28 00:53:32;;;;;;;32.92;27.95;;;;;;;;;;3577828;40;20411;-72
2021/04/28 00:55:59;;;;;;;31.67;27.85;;;;;;;;;;3584138;40;20375;-72
2021/04/28 00:58:25;;;;;;;34.75;29.85;;;;;;;;;;3574770;40;20411;-72
2021/04/28 01:00:52;;;;;;;36.45;31.45;;;;;;;;;;3577043;40;20384;-72
2021/04/28 01:03:20;;;;;;;31.02;26.92;;;;;;;;;;3580360;40;20454;-72
2021/04/28 01:05:46;;;;;;;31.60;26.90;;;;;;;;;;3576933;40;20399;-72
2021/04/28 01:08:15;;;;;;;31.52;26.33;;;;;;;;;;3577852;40;20384;-72
2021/04/28 01:10:42;;;;;;;30.40;26.63;;;;;;;;;;3579431;40;20384;-72
2021/04/28 01:13:08;;;;;;;28.95;25.95;;;;;;;;;;3575711;40;20388;-72
2021/04/28 01:15:35;;;;;;;29.33;26.10;;;;;;;;;;3576816;40;20423;-72
2021/04/28 01:18:02;;;;;;;30.45;27.15;;;;;;;;;;3577131;40;20660;-72
2021/04/28 01:20:32;;;;;;;28.70;25.80;;;;;;;;;;3577000;40;20383;-71
2021/04/28 01:22:59;;;;;;;29.90;26.80;;;;;;;;;;3576684;40;20519;-72
2021/04/28 01:25:26;;;;;;;29.58;26.38;;;;;;;;;;3574369;40;20380;-71
2021/04/28 01:27:55;;;;;;;28.40;25.47;;;;;;;;;;3575869;40;20416;-72
2021/04/28 01:30:22;;;;;;;27.95;24.95;;;;;;;;;;3580476;40;20465;-71
2021/04/28 01:32:49;;;;;;;27.38;24.45;;;;;;;;;;3580691;40;20422;-70
2021/04/28 01:35:17;;;;;;;27.63;24.73;;;;;;;;;;3575561;40;20373;-72
2021/04/28 01:37:44;;;;;;;29.55;26.27;;;;;;;;;;3575701;40;20380;-71
2021/04/28 01:40:13;;;;;;;28.05;24.90;;;;;;;;;;3577404;40;20383;-72
2021/04/28 01:42:39;;;;;;;28.88;25.88;;;;;;;;;;3576850;40;20395;-71
2021/04/28 01:45:06;;;;;;;32.00;28.50;;;;;;;;;;3577232;40;20652;-72
2021/04/28 01:47:33;;;;;;;27.88;24.88;;;;;;;;;;3580667;40;20447;-72
2021/04/28 01:49:59;;;;;;;28.55;25.55;;;;;;;;;;3576928;40;20387;-72
2021/04/28 01:52:26;;;;;;;29.17;26.07;;;;;;;;;;3576903;40;20387;-71
2021/04/28 01:54:52;;;;;;;27.58;24.67;;;;;;;;;;3578877;40;20385;-72
2021/04/28 01:57:19;;;;;;;26.70;23.90;;;;;;;;;;3578969;40;20804;-72
2021/04/28 01:59:46;;;;;;;26.83;23.90;;;;;;;;;;3577132;40;20389;-72
2021/04/28 02:02:12;;;;;;;26.17;23.47;;;;;;;;;;3576633;40;20396;-72
2021/04/28 02:04:39;;;;;;;27.88;24.90;;;;;;;;;;3570188;40;20474;-72
2021/04/28 02:07:05;;;;;;;32.53;26.85;;;;;;;;;;3577006;40;20772;-72
2021/04/28 02:09:31;;;;;;;31.98;28.17;;;;;;;;;;3575513;40;20404;-72
2021/04/28 02:11:58;;;;;;;29.02;25.92;;;;;;;;;;3576282;40;20386;-72
2021/04/28 02:14:25;;;;;;;28.92;24.88;;;;;;;;;;3576802;40;20412;-72
2021/04/28 02:16:52;;;;;;;28.83;25.48;;;;;;;;;;3577118;40;20407;-73
2021/04/28 02:19:18;;;;;;;35.03;30.45;;;;;;;;;;3576482;40;20772;-72
2021/04/28 02:21:46;;;;;;;30.83;27.47;;;;;;;;;;3576766;40;20677;-72
2021/04/28 02:24:13;;;;;;;31.75;28.25;;;;;;;;;;3576520;40;20383;-72
2021/04/28 02:26:39;;;;;;;30.30;26.65;;;;;;;;;;3576544;40;20831;-72
2021/04/28 02:29:05;;;;;;;33.17;28.35;;;;;;;;;;3576612;40;20370;-72
2021/04/28 02:31:33;;;;;;;30.92;27.35;;;;;;;;;;3576434;40;20380;-71
2021/04/28 02:34:00;;;;;;;31.58;27.70;;;;;;;;;;3576833;40;20789;-72
2021/04/28 02:36:27;;;;;;;31.77;27.77;;;;;;;;;;3572729;40;20715;-72
2021/04/28 02:38:54;;;;;;;32.55;27.48;;;;;;;;;;3569106;40;20378;-72
2021/04/28 02:41:22;;;;;;;37.50;31.25;;;;;;;;;;3575473;40;20415;-72
2021/04/28 02:43:48;;;;;;;36.90;30.35;;;;;;;;;;3576335;40;20396;-71
2021/04/28 02:46:15;;;;;;;35.95;30.63;;;;;;;;;;3576310;40;20386;-72
2021/04/28 02:48:43;;;;;;;37.17;30.73;;;;;;;;;;3576341;40;20356;-72
2021/04/28 02:51:09;;;;;;;34.25;29.13;;;;;;;;;;3575336;40;20407;-72
2021/04/28 02:53:36;;;;;;;35.53;29.95;;;;;;;;;;3575187;40;20391;-71
2021/04/28 02:56:02;;;;;;;34.78;29.30;;;;;;;;;;3575414;40;20403;-72
2021/04/28 02:58:29;;;;;;;40.80;33.65;;;;;;;;;;3576132;40;20375;-72
2021/04/28 03:00:56;;;;;;;39.05;32.13;;;;;;;;;;3576212;40;20465;-71
2021/04/28 03:03:22;;;;;;;39.20;32.92;;;;;;;;;;3575900;40;20422;-72
2021/04/28 03:05:50;;;;;;;38.05;32.78;;;;;;;;;;3564816;40;20392;-71
2021/04/28 03:08:16;;;;;;;38.58;33.05;;;;;;;;;;3576081;40;20384;-71
2021/04/28 03:10:43;;;;;;;37.10;31.40;;;;;;;;;;3575958;40;20380;-71
2021/04/28 03:13:09;;;;;;;37.40;32.75;;;;;;;;;;3576069;40;20376;-71
2021/04/28 03:15:35;;;;;;;39.03;34.00;;;;;;;;;;3575966;40;20415;-71
2021/04/28 03:18:01;;;;;;;36.90;31.23;;;;;;;;;;3576279;40;20360;-71
2021/04/28 03:20:27;;;;;;;36.88;32.42;;;;;;;;;;3571371;40;20441;-71
2021/04/28 03:22:55;;;;;;;37.60;33.47;;;;;;;;;;3575719;40;20649;-70
2021/04/28 03:25:21;;;;;;;43.00;36.65;;;;;;;;;;3577253;40;20383;-71
2021/04/28 03:27:49;;;;;;;39.20;33.72;;;;;;;;;;3576316;40;20481;-70
2021/04/28 03:30:15;;;;;;;45.45;37.70;;;;;;;;;;3573139;40;20427;-70
2021/04/28 03:32:41;;;;;;;38.90;34.33;;;;;;;;;;3577265;40;20399;-71
2021/04/28 03:35:08;;;;;;;35.83;31.40;;;;;;;;;;3577422;40;20376;-71
2021/04/28 03:37:34;;;;;;;37.80;32.30;;;;;;;;;;3577429;40;20372;-70
2021/04/28 03:40:01;;;;;;;37.90;31.85;;;;;;;;;;3577487;40;20458;-71
2021/04/28 03:42:28;;;;;;;37.17;32.23;;;;;;;;;;3572919;40;20385;-71
2021/04/28 03:44:56;;;;;;;34.83;30.50;;;;;;;;;;3576893;40;20387;-71
2021/04/28 03:47:22;;;;;;;37.33;32.53;;;;;;;;;;3573527;40;20383;-71
2021/04/28 03:49:48;;;;;;;36.03;31.83;;;;;;;;;;3568576;40;20399;-71
2021/04/28 03:52:15;;;;;;;38.50;33.47;;;;;;;;;;3574531;40;20397;-71
2021/04/28 03:54:41;;;;;;;40.30;33.90;;;;;;;;;;3575592;40;20399;-71
2021/04/28 03:57:08;;;;;;;37.67;33.47;;;;;;;;;;3571585;40;20404;-71
2021/04/28 03:59:35;;;;;;;39.40;33.92;;;;;;;;;;3576345;40;20672;-71
2021/04/28 04:02:01;;;;;;;38.75;34.22;;;;;;;;;;3570168;40;20528;-71
2021/04/28 04:04:27;;;;;;;38.78;32.25;;;;;;;;;;3578563;40;20415;-70
2021/04/28 04:06:53;;;;;;;41.08;34.40;;;;;;;;;;3577374;40;20493;-71
2021/04/28 04:09:20;;;;;;;38.00;32.53;;;;;;;;;;3579838;40;20400;-71
2021/04/28 04:11:46;;;;;;;69.93;55.03;;;;;;;;;;3577235;40;20376;-71
2021/04/28 04:14:13;;;;;;;57.95;47.28;;;;;;;;;;3576295;40;20408;-71
2021/04/28 04:16:39;;;;;;;33.58;29.55;;;;;;;;;;3572476;40;20405;-71
2021/04/28 04:19:05;;;;;;;27.65;23.90;;;11.60;99.90;;;;;;3575747;40;20530;-71
2021/04/28 04:21:32;;;;;;;31.83;25.67;;;;;;;;;;3567719;40;20475;-71
2021/04/28 04:23:58;;;;;;;27.98;23.63;;;;;;;;;;3577055;40;20376;-70
2021/04/28 04:26:24;;;;;;;26.02;22.50;;;;;;;;;;3577438;40;20425;-71
2021/04/28 04:28:50;;;;;;;26.20;21.92;;;;;;;;;;3577551;40;20391;-71
2021/04/28 04:31:18;;;;;;;18.23;16.02;;;;;;;;;;3577347;40;20614;-70
2021/04/28 04:33:44;;;;;;;22.42;19.30;;;;;;;;;;3576328;40;20407;-70
2021/04/28 04:36:10;;;;;;;18.10;16.08;;;;;;;;;;3573809;40;20392;-71
2021/04/28 04:38:36;;;;;;;15.50;14.00;;;;;;;;;;3577287;40;20423;-71
2021/04/28 04:41:03;;;;;;;15.50;13.90;;;;;;;;;;3576052;40;20403;-71
2021/04/28 04:43:29;;;;;;;16.77;15.07;;;;;;;;;;3577482;40;20400;-71
2021/04/28 04:45:55;;;;;;;16.30;14.70;;;;;;;;;;3574560;40;20390;-71
2021/04/28 04:48:22;;;;;;;15.15;13.63;;;;;;;;;;3571948;40;20441;-71
2021/04/28 04:50:48;;;;;;;15.93;14.32;;;;;;;;;;3575954;40;20427;-71
2021/04/28 04:53:14;;;;;;;16.05;13.60;;;;;;;;;;3577223;40;20379;-71
2021/04/28 04:55:41;;;;;;;13.90;12.50;;;;;;;;;;3577606;40;20392;-71
2021/04/28 04:58:07;;;;;;;13.43;12.02;;;;;;;;;;3578590;40;20483;-71
2021/04/28 05:00:33;;;;;;;13.93;12.52;;;;;;;;;;3576542;40;20739;-70
2021/04/28 05:03:00;;;;;;;13.48;12.07;;;;;;;;;;3575449;40;20409;-72
2021/04/28 05:05:27;;;;;;;13.40;12.00;;;;;;;;;;3576468;40;20360;-71
2021/04/28 05:07:53;;;;;;;13.95;11.90;;;;;;;;;;3577337;40;20638;-71
2021/04/28 05:10:20;;;;;;;13.27;11.97;;;;;;;;;;3576885;40;20379;-71
2021/04/28 05:12:47;;;;;;;14.80;13.20;;;;;;;;;;3576080;40;20465;-71
2021/04/28 05:15:14;;;;;;;14.35;12.52;;;;;;;;;;3576955;40;20395;-71
2021/04/28 05:17:40;;;;;;;14.95;13.23;;;;;;;;;;3576867;40;20387;-71
2021/04/28 05:20:07;;;;;;;15.18;13.57;;;;;;;;;;3576750;40;20396;-70
2021/04/28 05:22:34;;;;;;;15.35;13.75;;;;;;;;;;3576652;40;20406;-70
2021/04/28 05:25:00;;;;;;;15.13;13.57;;;;;;;;;;3576722;40;20400;-71
2021/04/28 05:27:27;;;;;;;16.98;15.23;;;;;;;;;;3576929;40;20388;-71
2021/04/28 05:29:53;;;;;;;15.75;14.10;;;;;;;;;;3576967;40;20402;-71
2021/04/28 05:32:19;;;;;;;15.73;14.13;;;;;;;;;;3577017;40;20740;-71
2021/04/28 05:34:46;;;;;;;17.05;15.25;;;;;;;;;;3576895;40;20477;-71
2021/04/28 05:37:13;;;;;;;19.13;16.98;;;;;;;;;;3573328;40;20403;-71
2021/04/28 05:39:40;;;;;;;19.10;16.40;;;;;;;;;;3577046;40;20465;-71
2021/04/28 05:42:06;;;;;;;18.85;16.65;;;;;;;;;;3575062;40;20402;-71
2021/04/28 05:44:32;;;;;;;20.60;18.08;;;;;;;;;;3575370;40;20502;-71
2021/04/28 05:46:59;;;;;;;17.25;15.45;;;;;;;;;;3576555;40;20376;-70
2021/04/28 05:49:25;;;;;;;18.40;16.48;;;;;;;;;;3576550;40;20379;-71
2021/04/28 05:51:51;;;;;;;19.15;17.15;;;;;;;;;;3577030;40;20387;-71
2021/04/28 05:54:18;;;;;;;19.15;17.15;;;;;;;;;;3575543;40;20399;-71
2021/04/28 05:56:45;;;;;;;19.53;17.50;;;;;;;;;;3576811;40;20678;-71
2021/04/28 05:59:11;;;;;;;19.88;17.80;;;;;;;;;;3576847;40;20440;-71
2021/04/28 06:01:37;;;;;;;18.70;16.75;;;;;;;;;;3567331;40;20566;-71
2021/04/28 06:04:04;;;;;;;19.15;17.15;;;;;;;;;;3574459;40;20419;-71
2021/04/28 06:06:30;;;;;;;20.73;18.50;;;;;;;;;;3575636;40;20387;-71
2021/04/28 06:08:58;;;;;;;19.20;17.17;;;;;;;;;;3574322;40;20404;-71
2021/04/28 06:11:24;;;;;;;20.65;17.77;;;;;;;;;;3575331;40;20491;-73
2021/04/28 06:13:51;;;;;;;17.90;16.10;;;;;;;;;;3576796;40;20427;-72
2021/04/28 06:16:17;;;;;;;18.75;16.75;;;;;;;;;;3575544;40;20476;-71
2021/04/28 06:18:44;;;;;;;20.45;17.75;;;;;;;;;;3566851;40;20436;-71
2021/04/28 06:21:11;;;;;;;18.65;16.65;;;;;;;;;;3574699;40;20813;-71
2021/04/28 06:23:38;;;;;;;20.30;17.42;;;;;;;;;;3575399;40;20431;-71
2021/04/28 06:26:04;;;;;;;20.70;17.43;;;;;;;;;;3575032;40;20465;-71
2021/04/28 06:28:31;;;;;;;19.85;17.75;;;;;;;;;;3576247;40;20368;-71
2021/04/28 06:30:58;;;;;;;20.23;18.13;;;;;;;;;;3575699;40;20745;-71
2021/04/28 06:33:24;;;;;;;19.60;17.50;;;;;;;;;;3574526;40;20415;-71
2021/04/28 06:35:50;;;;;;;21.75;18.52;;;;;;;;;;3575586;40;20672;-71
2021/04/28 06:38:17;;;;;;;21.25;18.98;;;;;;;;;;3575112;40;20388;-71
2021/04/28 06:40:43;;;;;;;21.33;18.40;;;;;;;;;;3566096;40;20394;-71
2021/04/28 06:43:10;;;;;;;18.83;16.92;;;;;;;;;;3576411;40;20677;-71
2021/04/28 06:45:36;;;;;;;20.02;17.92;;;;;;;;;;3576554;40;20396;-71
2021/04/28 06:48:04;;;;;;;19.08;17.05;;;;;;;;;;3576291;40;20391;-71
2021/04/28 06:50:30;;;;;;;19.90;17.80;;;;;;;;;;3576138;40;20493;-71
2021/04/28 06:52:56;;;;;;;19.85;17.73;;;;;;;;;;3576176;40;20396;-71
2021/04/28 06:55:23;;;;;;;19.48;17.52;;;;;;;;;;3576182;40;20376;-72
2021/04/28 06:57:55;;;;;;;22.27;18.83;;;;;;;;;;3575291;40;20376;-70
2021/04/28 07:00:21;;;;;;;21.70;19.40;;;;;;;;;;3577747;40;20372;-71
2021/04/28 07:02:48;;;;;;;21.40;19.20;;;;;;;;;;3577872;40;20580;-71
2021/04/28 07:05:15;;;;;;;20.33;18.05;;;;;;;;;;3576653;40;20411;-71
2021/04/28 07:07:41;;;;;;;21.65;18.85;;;;;;;;;;3577023;40;20695;-72
2021/04/28 07:10:08;;;;;;;23.83;20.10;;;;;;;;;;3574043;40;20364;-71
2021/04/28 07:12:34;;;;;;;22.60;20.20;;;;;;;;;;3577583;40;20438;-71
2021/04/28 07:15:00;;;;;;;22.08;19.52;;;;;;;;;;3575285;40;20389;-71
2021/04/28 07:17:27;;;;;;;21.83;19.50;;;;;;;;;;3576261;40;20379;-71
2021/04/28 07:19:53;;;;;;;24.75;22.10;;;;;;;;;;3577741;40;20459;-71
2021/04/28 07:22:20;;;;;;;24.10;21.60;;;;;;;;;;3575651;40;20399;-71
2021/04/28 07:24:48;;;;;;;21.48;19.27;;;;;;;;;;3576402;40;20392;-72
2021/04/28 07:27:14;;;;;;;21.70;19.50;;;10.70;99.90;;;;;;3577924;40;20376;-72
2021/04/28 07:29:41;;;;;;;21.25;19.05;;;11.50;99.90;;;;;;3565892;40;20413;-72
2021/04/28 07:32:07;;;;;;;24.87;21.73;;;11.50;99.90;;;;;;3563266;40;20407;-73
2021/04/28 07:34:33;;;;;;;22.85;20.40;;;11.50;99.90;;;;;;3576478;40;20368;-70
2021/04/28 07:36:59;;;;;;;21.90;19.60;;;11.40;99.90;;;;;;3577987;40;20398;-71
2021/04/28 07:39:26;;;;;;;21.80;18.85;;;11.50;99.90;;;;;;3576407;40;20386;-71
2021/04/28 07:41:52;;;;;;;26.75;23.67;;;11.50;99.90;;;;;;3577698;40;20458;-71
2021/04/28 07:44:18;;;;;;;23.17;20.75;;;11.50;99.90;;;;;;3577227;40;20387;-71
2021/04/28 07:46:44;;;;;;;22.75;20.27;;;11.50;99.90;;;;;;3573087;40;20405;-73
2021/04/28 07:49:10;;;;;;;24.63;21.65;;;11.50;99.90;;;;;;3573804;40;20385;-72
2021/04/28 07:51:37;;;;;;;22.95;20.50;;;11.60;99.90;;;;;;3576905;40;20396;-73
2021/04/28 07:54:04;;;;;;;25.10;21.98;;;11.60;99.90;;;;;;3571946;40;20410;-73
2021/04/28 07:56:31;;;;;;;26.42;23.60;;;11.70;99.90;;;;;;3576311;40;20420;-72
2021/04/28 07:58:57;;;;;;;26.35;22.58;;;11.80;99.90;;;;;;3578026;40;20383;-72
2021/04/28 08:01:23;;;;;;;25.50;22.80;;;11.80;99.90;;;;;;3577301;40;20392;-72
2021/04/28 08:03:49;;;;;;;26.42;23.60;;;11.90;99.90;;;;;;3577520;40;20459;-72
2021/04/28 08:06:15;;;;;;;28.58;24.73;;;11.80;99.90;;;;;;3571576;40;20452;-72
2021/04/28 08:08:41;;;;;;;26.73;22.67;;;;;;;;;;3576468;40;20392;-72
2021/04/28 08:11:08;;;;;;;25.35;22.10;;;;;;;;;;3576103;40;20383;-72
2021/04/28 08:13:35;;;;;;;25.88;22.98;;;;;;;;;;3582102;40;20485;-72
2021/04/28 08:16:01;;;;;;;31.55;26.95;;;11.90;99.90;;;;;;3577901;40;20443;-71
2021/04/28 08:18:27;;;;;;;29.42;26.23;;;12.40;99.90;;;;;;3569499;40;20644;-71
2021/04/28 08:20:54;;;;;;;33.83;30.10;;;;;;;;;;3577311;40;20380;-71
2021/04/28 08:23:20;;;;;;;30.98;27.58;;;;;;;;;;3574055;40;20769;-71
2021/04/28 08:25:47;;;;;;;34.15;28.83;;;;;;;;;;3577466;40;20384;-72
2021/04/28 08:28:13;;;;;;;33.20;29.08;;;;;;;;;;3569016;40;20506;-72
2021/04/28 08:30:40;;;;;;;30.92;27.63;;;12.50;99.90;;;;;;3574237;40;20772;-72
2021/04/28 08:33:06;;;;;;;34.20;30.48;;;12.90;99.90;;;;;;3577413;40;20653;-71
2021/04/28 08:35:32;;;;;;;32.30;28.80;;;12.80;99.90;;;;;;3577382;40;20372;-72
2021/04/28 08:37:58;;;;;;;37.78;33.67;;;12.90;99.90;;;;;;3571383;40;20376;-72
2021/04/28 08:40:24;;;;;;;39.22;34.67;;;12.90;99.90;;;;;;3577287;40;20383;-71
2021/04/28 08:42:50;;;;;;;32.08;28.67;;;;;;;;;;3575726;40;20397;-72
2021/04/28 08:45:17;;;;;;;32.95;29.42;;;;;;;;;;3572046;40;20388;-72
2021/04/28 08:47:45;;;;;;;28.85;25.75;;;;;;;;;;3576519;40;20384;-72
2021/04/28 08:50:12;;;;;;;34.22;30.52;;;;;;;;;;3577480;40;20380;-71
2021/04/28 08:52:39;;;;;;;33.85;30.15;;;;;;;;;;3577012;40;20420;-72
2021/04/28 08:55:07;;;;;;;30.13;26.92;;;;;;;;;;3577529;40;20392;-72
2021/04/28 08:57:33;;;;;;;32.08;28.67;;;;;;;;;;3577570;40;20388;-72
2021/04/28 08:59:59;;;;;;;32.80;29.30;;;;;;;;;;3577231;40;20387;-72
2021/04/28 09:02:27;;;;;;;31.80;28.38;;;;;;;;;;3576996;40;20396;-72
2021/04/28 09:05:09;;;;;;;35.45;31.65;;;;;;;;;;3575582;40;20715;-72
2021/04/28 09:07:36;;;;;;;37.00;32.58;;;;;;;;;;3572389;40;20726;-72
2021/04/28 09:10:04;;;;;;;34.38;30.70;;;;;;;;;;3575469;40;20496;-72
2021/04/28 09:12:30;;;;;;;35.08;31.25;;;;;;;;;;3577107;40;20362;-71
2021/04/28 09:14:56;;;;;;;35.17;31.03;;;;;;;;;;3575929;40;20384;-71
2021/04/28 09:17:22;;;;;;;34.05;30.48;;;13.10;99.90;;;;;;3582058;40;20485;-72
2021/04/28 09:19:55;;;;;;;36.65;32.20;;;13.90;99.90;;;;;;3573484;40;20705;-72
2021/04/28 09:22:22;;;;;;;38.67;33.67;;;13.70;99.90;;;;;;3573541;40;20468;-72
2021/04/28 09:24:49;;;;;;;35.72;31.92;;;13.40;99.90;;;;;;3576897;40;20757;-72
2021/04/28 09:27:26;;;;;;;36.17;32.25;;;13.40;99.90;;;;;;3576564;40;20392;-71
2021/04/28 09:29:53;;;;;;;34.55;30.88;;;13.50;99.90;;;;;;3561631;40;20427;-71
2021/04/28 09:32:19;;;;;;;34.53;30.93;;;;;;;;;;3575610;40;20898;-72
2021/04/28 09:34:46;;;;;;;34.72;30.95;;;;;;;;;;3574033;40;20440;-72
2021/04/28 09:37:13;;;;;;;34.42;30.65;;;;;;;;;;3569449;40;20381;-71
2021/04/28 09:39:44;;;;;;;34.47;30.73;;;;;;;;;;3576107;40;20373;-71
2021/04/28 09:42:11;;;;;;;36.97;32.97;;;;;;;;;;3576755;40;20386;-72
2021/04/28 09:44:38;;;;;;;35.80;31.60;;;;;;;;;;3576628;40;20364;-71
2021/04/28 09:47:10;;;;;;;32.38;28.98;;;;;;;;;;3576512;40;20403;-71
2021/04/28 09:49:52;;;;;;;32.95;29.38;;;;;;;;;;3576672;40;20455;-72
2021/04/28 09:52:20;;;;;;;32.90;29.40;;;;;;;;;;3572100;40;20364;-71
2021/04/28 09:54:48;;;;;;;33.90;29.13;;;;;;;;;;3577376;40;20784;-71
2021/04/28 09:57:16;;;;;;;31.55;28.15;;;;;;;;;;3576417;40;20387;-71
2021/04/28 09:59:43;;;;;;;31.13;27.85;;;;;;;;;;3570480;40;20505;-71
2021/04/28 10:02:11;;;;;;;32.55;29.05;;;;;;;;;;3573405;40;20413;-71
2021/04/28 10:04:38;;;;;;;30.90;27.60;;;;;;;;;;3572350;40;20424;-72
2021/04/28 10:07:04;;;;;;;29.63;26.43;;;;;;;;;;3581416;40;20379;-72
2021/04/28 10:09:31;;;;;;;30.98;27.65;;;;;;;;;;3576375;40;20750;-71
2021/04/28 10:11:59;;;;;;;29.85;26.30;;;;;;;;;;3566897;40;20440;-72
2021/04/28 10:14:27;;;;;;;34.70;30.25;;;;;;;;;;3576618;40;20384;-71
2021/04/28 10:16:54;;;;;;;29.85;26.05;;;;;;;;;;3569921;40;20381;-72
2021/04/28 10:19:22;;;;;;;32.20;28.80;;;;;;;;;;3576113;40;20388;-71
2021/04/28 10:21:48;;;;;;;29.85;26.10;;;;;;;;;;3576566;40;20851;-71
2021/04/28 10:24:16;;;;;;;31.02;27.27;;;;;;;;;;3571599;40;20375;-71
2021/04/28 10:26:42;;;;;;;30.98;26.83;;;;;;;;;;3571690;40;20384;-71
2021/04/28 10:29:09;;;;;;;28.85;24.88;;;;;;;;;;3575356;40;20384;-71
2021/04/28 10:31:36;;;;;;;26.27;22.05;;;;;;;;;;3574232;40;20637;-72
2021/04/28 10:34:03;;;;;;;24.50;21.90;;;;;;;;;;3576027;40;20375;-72
2021/04/28 10:36:29;;;;;;;26.03;23.23;;;;;;;;;;3576642;40;20390;-71
2021/04/28 10:38:56;;;;;;;27.65;23.77;;;;;;;;;;3576705;40;20379;-71
2021/04/28 10:41:44;;;;;;;28.50;24.98;;;;;;;;;;3576141;40;20384;-71
2021/04/28 10:44:25;;;;;;;28.90;25.73;;;;;;;;;;3573420;40;20403;-72
2021/04/28 10:47:12;;;;;;;28.60;25.48;;;;;;;;;;3562622;40;20721;-72
2021/04/28 10:49:58;;;;;;;30.02;26.08;;;;;;;;;;3564304;40;20764;-71
2021/04/28 10:52:27;;;;;;;28.15;24.85;;;;;;;;;;3564190;40;20385;-71
2021/04/28 10:54:55;;;;;;;26.05;22.90;;;;;;;;;;3564499;40;20495;-72
2021/04/28 10:57:32;;;;;;;28.77;25.67;;;;;;;;;;3564805;40;20662;-71
2021/04/28 11:00:02;;;;;;;29.10;25.67;;;;;;;;;;3556038;40;20445;-72
2021/04/28 11:02:32;;;;;;;28.98;25.80;;;;;;;;;;3564011;40;20409;-72
2021/04/28 11:05:02;;;;;;;31.80;27.05;;;;;;;;;;3564005;40;20857;-71
2021/04/28 11:07:41;;;;;;;28.70;25.70;;;13.80;99.90;;;;;;3557315;40;20413;-71
2021/04/28 11:10:29;;;;;;;30.42;27.02;;;15.50;99.90;;;;;;3563944;40;20406;-72
2021/04/28 11:13:06;;;;;;;32.05;28.50;;;15.50;99.90;;;;;;3564067;40;20398;-71
2021/04/28 11:15:49;;;;;;;31.88;28.05;;;15.60;99.90;;;;;;3563226;40;20399;-72
2021/04/28 11:18:33;;;;;;;33.17;28.67;;;15.70;99.90;;;;;;3571112;40;20661;-72
2021/04/28 11:21:24;;;;;;;32.75;29.08;;;15.70;99.90;;;;;;3575270;40;20391;-72
2021/04/28 11:24:09;;;;;;;30.85;27.35;;;15.60;99.90;;;;;;3575699;40;20379;-71
2021/04/28 11:26:36;;;;;;;31.50;27.60;;;;;;;;;;3575330;40;20389;-72
2021/04/28 11:29:03;;;;;;;30.65;27.33;;;;;;;;;;3576218;40;20490;-72
2021/04/28 11:31:41;;;;;;;31.33;27.67;;;;;;;;;;3575237;40;20392;-71
2021/04/28 11:34:18;;;;;;;31.10;27.67;;;;;;;;;;3575818;40;20434;-71
2021/04/28 11:36:49;;;;;;;29.97;26.83;;;;;;;;;;3566533;40;20512;-71
2021/04/28 11:39:30;;;;;;;30.65;27.27;;;;;;;;;;3577665;40;20426;-71
2021/04/28 11:42:02;;;;;;;31.20;26.20;;;;;;;;;;3566390;40;20674;-72
2021/04/28 11:44:29;;;;;;;27.80;24.90;;;;;;;;;;3576303;40;20658;-72
2021/04/28 11:46:55;;;;;;;32.97;29.40;;;;;;;;;;3577028;40;20394;-72
2021/04/28 11:49:22;;;;;;;29.90;26.73;;;;;;;;;;3577050;40;20465;-72
2021/04/28 11:51:57;;;;;;;29.02;25.92;;;;;;;;;;3577191;40;20383;-71
2021/04/28 11:54:23;;;;;;;30.73;27.00;;;;;;;;;;3576946;40;21086;-72
2021/04/28 11:56:49;;;;;;;26.92;24.10;;;;;;;;;;3577351;40;20386;-71
2021/04/28 11:59:19;;;;;;;27.58;24.70;;;;;;;;;;3577078;40;20379;-71
2021/04/28 12:01:46;;;;;;;28.33;23.90;;;;;;;;;;3579798;40;20398;-72
2021/04/28 12:04:12;;;;;;;26.45;23.65;;;;;;;;;;3577644;40;20419;-72
2021/04/28 12:06:41;;;;;;;25.00;22.50;;;;;;;;;;3571303;40;20396;-72
2021/04/28 12:09:17;;;;;;;23.30;20.80;;;;;;;;;;3576577;40;20403;-72
2021/04/28 12:11:45;;;;;;;23.85;21.25;;;;;;;;;;3577677;40;20388;-72
2021/04/28 12:14:11;;;;;;;23.25;20.50;;;;;;;;;;3568183;40;20381;-72
2021/04/28 12:16:41;;;;;;;26.48;23.67;;;;;;;;;;3573122;40;20395;-72
2021/04/28 12:19:09;;;;;;;24.85;22.25;;;17.40;99.90;;;;;;3576092;40;20481;-71
2021/04/28 12:21:35;;;;;;;22.98;20.58;;;18.10;98.00;;;;;;3577437;40;20384;-72
2021/04/28 12:24:02;;;;;;;24.40;21.90;;;18.10;97.70;;;;;;3565114;40;20408;-72
2021/04/28 12:26:29;;;;;;;21.88;19.45;;;18.10;97.90;;;;;;3577089;40;20390;-72
2021/04/28 12:28:54;;;;;;;23.08;19.75;;;18.10;98.50;;;;;;3574482;40;20383;-73
2021/04/28 12:31:45;;;;;;;20.27;18.17;;;18.10;97.80;;;;;;3572218;40;20396;-72
2021/04/28 12:34:16;;;;;;;18.88;16.88;;;18.20;97.20;;;;;;3562896;40;20391;-72
2021/04/28 12:36:43;;;;;;;20.75;17.85;;;;;;;;;;3574416;40;20372;-72
2021/04/28 12:39:10;;;;;;;21.85;19.13;;;;;;;;;;3571643;40;20555;-72
2021/04/28 12:41:36;;;;;;;21.15;18.17;;;;;;;;;;3573398;40;20401;-73
2021/04/28 12:44:03;;;;;;;20.35;18.25;;;;;;;;;;3573130;40;20377;-77
2021/04/28 12:46:30;;;;;;;18.77;16.87;;;;;;;;;;3571591;40;20416;-72
2021/04/28 12:48:59;;;;;;;19.40;17.30;;;;;;;;;;3572571;40;20416;-72
2021/04/28 12:51:26;;;;;;;19.25;17.23;;;;;;;;;;3572574;40;20376;-73
2021/04/28 12:53:52;;;;;;;21.42;19.17;;;;;;;;;;3581458;40;20654;-71
2021/04/28 12:56:20;;;;;;;18.20;16.33;;;;;;;;;;3571872;40;20477;-72
2021/04/28 12:58:47;;;;;;;20.45;18.25;;;;;;;;;;3572212;40;20441;-72
2021/04/28 13:01:17;;;;;;;18.85;16.95;;;;;;;;;;3570826;40;20507;-72
2021/04/28 13:03:43;;;;;;;22.05;18.70;;;;;;;;;;3571161;40;20420;-72
2021/04/28 13:06:10;;;;;;;22.17;19.83;;;;;;;;;;3571757;40;20763;-72
2021/04/28 13:08:36;;;;;;;20.52;18.42;;;;;;;;;;3572177;40;20411;-72
2021/04/28 13:11:18;;;;;;;20.98;18.70;;;;;;;;;;3573272;40;20435;-72
2021/04/28 13:13:50;;;;;;;21.92;19.65;;;;;;;;;;3573170;40;20372;-73
2021/04/28 13:16:29;;;;;;;24.38;21.73;;;;;;;;;;3572964;40;20636;-72
2021/04/28 13:18:56;;;;;;;22.92;20.42;;;;;;;;;;3572964;40;20373;-72
2021/04/28 13:21:24;;;;;;;20.67;18.57;;;;;;;;;;3571718;40;20386;-72
2021/04/28 13:24:03;;;;;;;22.23;19.75;;;;;;;;;;3572536;40;20375;-72
2021/04/28 13:26:30;;;;;;;24.15;20.98;;;;;;;;;;3571584;40;20381;-72
2021/04/28 13:28:58;;;;;;;22.83;20.47;;;;;;;;;;3572011;40;20386;-73
2021/04/28 13:31:25;;;;;;;22.55;20.15;;;;;;;;;;3571126;40;20407;-72
2021/04/28 13:33:52;;;;;;;23.35;20.80;;;;;;;;;;3571961;40;20395;-71
2021/04/28 13:36:20;;;;;;;20.88;18.70;;;;;;;;;;3572900;40;20474;-72
2021/04/28 13:38:47;;;;;;;21.63;19.33;;;;;;;;;;3571888;40;20463;-72
2021/04/28 13:41:13;;;;;;;23.63;21.23;;;;;;;;;;3570764;40;20481;-72
2021/04/28 13:43:39;;;;;;;19.90;17.90;;;;;;;;;;3571564;40;20394;-71
2021/04/28 13:46:07;;;;;;;20.42;18.30;;;;;;;;;;3572145;40;20427;-72
2021/04/28 13:48:33;;;;;;;21.20;19.00;;;;;;;;;;3572033;40;20391;-72
2021/04/28 13:50:59;;;;;;;19.23;17.23;;;;;;;;;;3570942;40;20839;-71
2021/04/28 13:53:25;;;;;;;19.23;17.33;;;;;;;;;;3569286;40;20472;-71
2021/04/28 13:55:53;;;;;;;20.10;18.08;;;;;;;;;;3571602;40;20789;-72
2021/04/28 13:58:20;;;;;;;20.60;18.42;;;;;;;;;;3570995;40;20413;-72
2021/04/28 14:00:46;;;;;;;19.17;17.23;;;;;;;;;;3570181;40;20404;-72
2021/04/28 14:03:13;;;;;;;19.55;17.52;;;;;;;;;;3572575;40;20453;-72
2021/04/28 14:05:39;;;;;;;19.90;17.90;;;;;;;;;;3570355;40;20408;-72